PAYA/YAK METAR and TAF weather

Enter ICAO airport designator
Station Type Date Time Source
PAYA METAR 2019/11/18 08:53 UTC NOAA

PAYA 180853Z AUTO 10005KT 10SM FEW020 BKN041 OVC100 05/04 A2971 RMK AO2 RAB28E53 SLP062 P0000 60018 T00500044 400720039 51007 TSNO


Station Type Date Time Source
PAYA Decoded METAR 2019/11/18 08:53 UTC NOAA

YAKUTAT AIRPORT, AK, United States (PAYA) 59-30N 139-40W 9M
Nov 18, 2019 - 03:53 AM EST / 2019.11.18 0853 UTC
Wind: from the E (100 degrees) at 6 MPH (5 KT):0
Visibility: 10 mile(s):0
Sky conditions: overcast
Precipitation last hour: A trace
Temperature: 41.0 F (5.0 C)
Dew Point: 39.9 F (4.4 C)
Relative Humidity: 95%
Pressure (altimeter): 29.71 in. Hg (1006 hPa)
Pressure tendency: 0.02 inches (0.7 hPa) higher than three hours ago
ob: PAYA 180853Z AUTO 10005KT 10SM FEW020 BKN041 OVC100 05/04 A2971 RMK AO2 RAB28E53 SLP062 P0000 60018 T00500044 400720039 51007 TSNO
cycle: 9

Station Type Date Time Source
PAYA TAF 2019/11/18 06:39 UTC NOAA

TAF PAYA 180537Z 1806/1906 10005KT P6SM -SHRA OVC050
TEMPO 1808/1812 P6SM -SHRA BKN025 OVC050
AMD LTD TO CLD VIS AND WIND

Example: see airport list